sensor_id;sensor_type;location;lat;lon;timestamp;P1;durP1;ratioP1;P2;durP2;ratioP2
32788;SDS011;19141;48.980;8.410;2023-08-31T04:22:33;13.85;;;5.30;;
32788;SDS011;19141;48.980;8.410;2023-08-31T04:24:59;10.07;;;5.28;;
32788;SDS011;19141;48.980;8.410;2023-08-31T04:27:24;8.25;;;4.70;;
32788;SDS011;19141;48.980;8.410;2023-08-31T04:29:50;10.45;;;5.30;;
32788;SDS011;19141;48.980;8.410;2023-08-31T04:32:15;11.85;;;5.82;;
32788;SDS011;19141;48.980;8.410;2023-08-31T04:34:40;11.93;;;5.68;;
32788;SDS011;19141;48.980;8.410;2023-08-31T04:37:06;10.43;;;5.45;;
32788;SDS011;19141;48.980;8.410;2023-08-31T04:39:31;10.00;;;4.80;;
32788;SDS011;19141;48.980;8.410;2023-08-31T04:41:56;6.60;;;3.92;;
32788;SDS011;19141;48.980;8.410;2023-08-31T04:44:22;9.32;;;4.55;;
32788;SDS011;19141;48.980;8.410;2023-08-31T04:46:47;6.80;;;4.28;;
32788;SDS011;19141;48.980;8.410;2023-08-31T04:49:13;10.80;;;5.47;;
32788;SDS011;19141;48.980;8.410;2023-08-31T04:51:38;8.75;;;4.35;;
32788;SDS011;19141;48.980;8.410;2023-08-31T04:54:04;10.40;;;4.68;;
32788;SDS011;19141;48.980;8.410;2023-08-31T04:56:31;9.00;;;4.25;;
32788;SDS011;19141;48.980;8.410;2023-08-31T04:58:58;9.50;;;3.80;;
32788;SDS011;19141;48.980;8.410;2023-08-31T05:01:24;13.65;;;4.05;;
32788;SDS011;19141;48.980;8.410;2023-08-31T05:03:49;7.53;;;3.88;;
32788;SDS011;19141;48.980;8.410;2023-08-31T05:06:15;7.60;;;3.97;;
32788;SDS011;19141;48.980;8.410;2023-08-31T05:08:40;6.40;;;4.47;;
32788;SDS011;19141;48.980;8.410;2023-08-31T05:11:06;8.10;;;4.60;;
32788;SDS011;19141;48.980;8.410;2023-08-31T05:13:32;5.82;;;3.75;;
32788;SDS011;19141;48.980;8.410;2023-08-31T05:15:57;6.68;;;3.78;;
32788;SDS011;19141;48.980;8.410;2023-08-31T05:18:23;10.40;;;4.40;;
32788;SDS011;19141;48.980;8.410;2023-08-31T05:20:48;7.55;;;3.83;;
32788;SDS011;19141;48.980;8.410;2023-08-31T05:23:14;8.85;;;3.38;;
32788;SDS011;19141;48.980;8.410;2023-08-31T05:25:46;9.10;;;3.63;;
32788;SDS011;19141;48.980;8.410;2023-08-31T05:28:11;7.18;;;3.83;;
32788;SDS011;19141;48.980;8.410;2023-08-31T05:30:37;8.60;;;4.00;;
32788;SDS011;19141;48.980;8.410;2023-08-31T05:33:11;7.18;;;3.38;;
32788;SDS011;19141;48.980;8.410;2023-08-31T05:35:36;6.85;;;3.35;;
32788;SDS011;19141;48.980;8.410;2023-08-31T05:38:01;8.70;;;3.92;;
32788;SDS011;19141;48.980;8.410;2023-08-31T05:40:28;8.63;;;3.97;;
32788;SDS011;19141;48.980;8.410;2023-08-31T05:42:53;7.40;;;3.65;;
32788;SDS011;19141;48.980;8.410;2023-08-31T05:45:19;9.30;;;4.15;;
32788;SDS011;19141;48.980;8.410;2023-08-31T05:47:44;9.40;;;4.30;;
32788;SDS011;19141;48.980;8.410;2023-08-31T05:50:09;4.72;;;3.05;;
32788;SDS011;19141;48.980;8.410;2023-08-31T05:52:35;6.25;;;3.75;;
32788;SDS011;19141;48.980;8.410;2023-08-31T05:55:00;6.10;;;3.75;;
32788;SDS011;19141;48.980;8.410;2023-08-31T05:57:26;5.68;;;3.92;;
32788;SDS011;19141;48.980;8.410;2023-08-31T05:59:52;6.73;;;3.63;;
32788;SDS011;19141;48.980;8.410;2023-08-31T06:02:18;8.02;;;3.28;;
32788;SDS011;19141;48.980;8.410;2023-08-31T06:04:43;8.73;;;4.07;;
32788;SDS011;19141;48.980;8.410;2023-08-31T06:07:09;8.30;;;3.70;;
32788;SDS011;19141;48.980;8.410;2023-08-31T06:09:34;7.97;;;3.45;;
32788;SDS011;19141;48.980;8.410;2023-08-31T06:12:00;8.13;;;3.80;;
32788;SDS011;19141;48.980;8.410;2023-08-31T06:14:25;4.72;;;3.15;;
32788;SDS011;19141;48.980;8.410;2023-08-31T06:16:50;7.75;;;3.17;;
32788;SDS011;19141;48.980;8.410;2023-08-31T06:19:17;7.50;;;4.40;;
32788;SDS011;19141;48.980;8.410;2023-08-31T06:21:43;6.43;;;3.20;;
32788;SDS011;19141;48.980;8.410;2023-08-31T06:24:08;7.47;;;3.65;;
32788;SDS011;19141;48.980;8.410;2023-08-31T06:26:37;7.97;;;4.88;;
32788;SDS011;19141;48.980;8.410;2023-08-31T06:29:03;9.00;;;3.58;;
32788;SDS011;19141;48.980;8.410;2023-08-31T06:31:29;6.22;;;3.67;;
32788;SDS011;19141;48.980;8.410;2023-08-31T06:33:54;5.20;;;3.33;;
32788;SDS011;19141;48.980;8.410;2023-08-31T06:36:20;8.85;;;3.97;;
32788;SDS011;19141;48.980;8.410;2023-08-31T06:38:45;7.68;;;3.30;;
32788;SDS011;19141;48.980;8.410;2023-08-31T06:41:11;6.90;;;3.50;;
32788;SDS011;19141;48.980;8.410;2023-08-31T06:43:36;7.82;;;3.40;;
32788;SDS011;19141;48.980;8.410;2023-08-31T06:46:02;8.18;;;3.30;;
32788;SDS011;19141;48.980;8.410;2023-08-31T06:48:27;6.93;;;3.40;;
32788;SDS011;19141;48.980;8.410;2023-08-31T06:50:53;6.95;;;3.65;;
32788;SDS011;19141;48.980;8.410;2023-08-31T06:53:18;8.93;;;3.15;;
32788;SDS011;19141;48.980;8.410;2023-08-31T06:55:43;4.43;;;3.17;;
32788;SDS011;19141;48.980;8.410;2023-08-31T06:58:09;9.45;;;4.75;;
32788;SDS011;19141;48.980;8.410;2023-08-31T07:00:35;5.85;;;3.15;;
32788;SDS011;19141;48.980;8.410;2023-08-31T07:03:00;6.65;;;3.47;;
32788;SDS011;19141;48.980;8.410;2023-08-31T07:05:26;6.28;;;3.10;;
32788;SDS011;19141;48.980;8.410;2023-08-31T07:07:54;5.72;;;3.30;;
32788;SDS011;19141;48.980;8.410;2023-08-31T07:10:20;7.55;;;4.45;;
32788;SDS011;19141;48.980;8.410;2023-08-31T07:12:46;6.10;;;3.25;;
32788;SDS011;19141;48.980;8.410;2023-08-31T07:15:12;6.65;;;3.17;;
32788;SDS011;19141;48.980;8.410;2023-08-31T07:17:37;6.38;;;3.20;;
32788;SDS011;19141;48.980;8.410;2023-08-31T07:20:03;4.75;;;2.72;;
32788;SDS011;19141;48.980;8.410;2023-08-31T07:22:31;4.70;;;3.20;;
32788;SDS011;19141;48.980;8.410;2023-08-31T07:24:59;4.57;;;2.65;;
32788;SDS011;19141;48.980;8.410;2023-08-31T07:27:25;5.75;;;3.15;;
32788;SDS011;19141;48.980;8.410;2023-08-31T07:29:50;12.23;;;5.47;;
32788;SDS011;19141;48.980;8.410;2023-08-31T07:32:16;7.53;;;3.03;;
32788;SDS011;19141;48.980;8.410;2023-08-31T07:34:41;4.85;;;2.42;;
32788;SDS011;19141;48.980;8.410;2023-08-31T07:37:07;7.30;;;2.92;;
32788;SDS011;19141;48.980;8.410;2023-08-31T07:39:32;7.18;;;2.28;;
32788;SDS011;19141;48.980;8.410;2023-08-31T07:41:57;5.13;;;2.40;;
32788;SDS011;19141;48.980;8.410;2023-08-31T07:44:24;5.60;;;2.47;;
32788;SDS011;19141;48.980;8.410;2023-08-31T07:46:50;5.25;;;2.38;;
32788;SDS011;19141;48.980;8.410;2023-08-31T07:49:15;4.25;;;2.67;;
32788;SDS011;19141;48.980;8.410;2023-08-31T07:51:41;3.47;;;2.33;;
32788;SDS011;19141;48.980;8.410;2023-08-31T07:54:06;2.70;;;2.20;;
32788;SDS011;19141;48.980;8.410;2023-08-31T07:56:31;3.58;;;2.13;;
32788;SDS011;19141;48.980;8.410;2023-08-31T07:58:57;3.75;;;2.05;;
32788;SDS011;19141;48.980;8.410;2023-08-31T08:01:23;3.30;;;1.85;;
32788;SDS011;19141;48.980;8.410;2023-08-31T08:03:49;3.28;;;2.22;;
32788;SDS011;19141;48.980;8.410;2023-08-31T08:06:14;3.72;;;2.15;;
32788;SDS011;19141;48.980;8.410;2023-08-31T08:08:39;6.07;;;1.90;;
32788;SDS011;19141;48.980;8.410;2023-08-31T08:11:05;2.75;;;1.92;;
32788;SDS011;19141;48.980;8.410;2023-08-31T08:13:30;3.47;;;1.60;;
32788;SDS011;19141;48.980;8.410;2023-08-31T08:15:56;5.70;;;2.17;;
32788;SDS011;19141;48.980;8.410;2023-08-31T08:18:21;3.83;;;1.90;;
32788;SDS011;19141;48.980;8.410;2023-08-31T08:20:47;4.28;;;1.90;;
32788;SDS011;19141;48.980;8.410;2023-08-31T08:23:13;3.50;;;1.98;;
32788;SDS011;19141;48.980;8.410;2023-08-31T08:25:38;5.00;;;2.05;;
32788;SDS011;19141;48.980;8.410;2023-08-31T08:28:04;3.80;;;1.50;;
32788;SDS011;19141;48.980;8.410;2023-08-31T08:30:29;4.78;;;2.38;;
32788;SDS011;19141;48.980;8.410;2023-08-31T08:32:55;4.57;;;1.85;;
32788;SDS011;19141;48.980;8.410;2023-08-31T08:35:20;2.85;;;1.67;;
32788;SDS011;19141;48.980;8.410;2023-08-31T08:37:45;2.53;;;1.50;;
32788;SDS011;19141;48.980;8.410;2023-08-31T08:40:11;4.43;;;1.77;;
32788;SDS011;19141;48.980;8.410;2023-08-31T08:42:38;4.22;;;1.60;;
32788;SDS011;19141;48.980;8.410;2023-08-31T08:45:07;3.58;;;1.73;;
32788;SDS011;19141;48.980;8.410;2023-08-31T08:47:37;2.85;;;1.50;;
32788;SDS011;19141;48.980;8.410;2023-08-31T08:50:05;2.85;;;1.73;;
32788;SDS011;19141;48.980;8.410;2023-08-31T08:52:31;2.38;;;1.40;;
32788;SDS011;19141;48.980;8.410;2023-08-31T08:54:56;4.30;;;1.67;;
32788;SDS011;19141;48.980;8.410;2023-08-31T08:57:22;6.80;;;2.13;;
32788;SDS011;19141;48.980;8.410;2023-08-31T08:59:48;3.50;;;1.58;;
32788;SDS011;19141;48.980;8.410;2023-08-31T09:02:13;5.93;;;1.88;;
32788;SDS011;19141;48.980;8.410;2023-08-31T09:04:39;3.60;;;1.45;;
32788;SDS011;19141;48.980;8.410;2023-08-31T09:07:04;3.17;;;1.70;;
32788;SDS011;19141;48.980;8.410;2023-08-31T09:09:30;3.90;;;1.80;;
32788;SDS011;19141;48.980;8.410;2023-08-31T09:11:55;4.55;;;1.77;;
32788;SDS011;19141;48.980;8.410;2023-08-31T09:14:21;2.10;;;1.33;;
32788;SDS011;19141;48.980;8.410;2023-08-31T09:16:47;3.15;;;1.40;;
32788;SDS011;19141;48.980;8.410;2023-08-31T09:21:50;2.83;;;1.63;;
32788;SDS011;19141;48.980;8.410;2023-08-31T09:24:17;4.50;;;1.80;;
32788;SDS011;19141;48.980;8.410;2023-08-31T09:26:47;3.17;;;1.55;;
32788;SDS011;19141;48.980;8.410;2023-08-31T09:29:13;3.13;;;1.92;;
32788;SDS011;19141;48.980;8.410;2023-08-31T09:31:42;4.05;;;1.98;;
32788;SDS011;19141;48.980;8.410;2023-08-31T09:34:09;2.80;;;1.50;;
32788;SDS011;19141;48.980;8.410;2023-08-31T09:36:34;2.80;;;1.30;;
32788;SDS011;19141;48.980;8.410;2023-08-31T09:39:01;3.72;;;1.48;;
32788;SDS011;19141;48.980;8.410;2023-08-31T09:41:27;4.28;;;1.55;;
32788;SDS011;19141;48.980;8.410;2023-08-31T09:43:52;4.20;;;1.70;;
32788;SDS011;19141;48.980;8.410;2023-08-31T09:46:18;2.05;;;1.08;;
32788;SDS011;19141;48.980;8.410;2023-08-31T09:48:45;5.50;;;1.55;;
32788;SDS011;19141;48.980;8.410;2023-08-31T09:51:11;5.22;;;1.83;;
32788;SDS011;19141;48.980;8.410;2023-08-31T09:53:39;3.40;;;1.70;;
32788;SDS011;19141;48.980;8.410;2023-08-31T09:56:07;3.45;;;1.58;;
32788;SDS011;19141;48.980;8.410;2023-08-31T09:58:32;3.00;;;1.60;;
32788;SDS011;19141;48.980;8.410;2023-08-31T10:00:58;4.55;;;1.65;;
32788;SDS011;19141;48.980;8.410;2023-08-31T10:03:25;4.93;;;1.75;;
32788;SDS011;19141;48.980;8.410;2023-08-31T10:05:52;5.32;;;1.70;;
32788;SDS011;19141;48.980;8.410;2023-08-31T10:08:19;4.10;;;1.40;;
32788;SDS011;19141;48.980;8.410;2023-08-31T10:10:44;3.47;;;1.60;;
32788;SDS011;19141;48.980;8.410;2023-08-31T10:13:11;6.75;;;1.90;;
32788;SDS011;19141;48.980;8.410;2023-08-31T10:15:37;3.50;;;1.67;;
32788;SDS011;19141;48.980;8.410;2023-08-31T10:18:03;2.55;;;1.52;;
32788;SDS011;19141;48.980;8.410;2023-08-31T10:20:30;3.35;;;1.30;;
32788;SDS011;19141;48.980;8.410;2023-08-31T10:22:57;3.78;;;1.95;;
32788;SDS011;19141;48.980;8.410;2023-08-31T10:25:23;4.97;;;2.17;;
32788;SDS011;19141;48.980;8.410;2023-08-31T10:27:49;3.42;;;1.50;;
32788;SDS011;19141;48.980;8.410;2023-08-31T10:32:46;2.17;;;1.50;;
32788;SDS011;19141;48.980;8.410;2023-08-31T10:35:12;4.65;;;2.20;;
32788;SDS011;19141;48.980;8.410;2023-08-31T10:37:39;6.40;;;1.75;;
32788;SDS011;19141;48.980;8.410;2023-08-31T10:42:43;3.65;;;1.40;;
32788;SDS011;19141;48.980;8.410;2023-08-31T10:45:09;2.80;;;1.30;;
32788;SDS011;19141;48.980;8.410;2023-08-31T10:47:39;12.02;;;1.77;;
32788;SDS011;19141;48.980;8.410;2023-08-31T10:50:15;7.63;;;2.22;;
32788;SDS011;19141;48.980;8.410;2023-08-31T10:52:45;3.17;;;1.50;;
32788;SDS011;19141;48.980;8.410;2023-08-31T10:55:13;3.25;;;1.88;;
32788;SDS011;19141;48.980;8.410;2023-08-31T10:57:40;5.30;;;1.58;;
32788;SDS011;19141;48.980;8.410;2023-08-31T11:00:06;5.25;;;1.50;;
32788;SDS011;19141;48.980;8.410;2023-08-31T11:02:43;2.50;;;1.48;;
32788;SDS011;19141;48.980;8.410;2023-08-31T11:07:45;4.43;;;1.65;;
32788;SDS011;19141;48.980;8.410;2023-08-31T11:12:40;4.60;;;1.85;;
32788;SDS011;19141;48.980;8.410;2023-08-31T11:15:06;2.38;;;1.60;;
32788;SDS011;19141;48.980;8.410;2023-08-31T11:17:33;3.03;;;1.45;;
32788;SDS011;19141;48.980;8.410;2023-08-31T11:19:59;2.47;;;1.50;;
32788;SDS011;19141;48.980;8.410;2023-08-31T11:22:25;2.97;;;1.45;;
32788;SDS011;19141;48.980;8.410;2023-08-31T11:24:50;4.57;;;1.77;;
32788;SDS011;19141;48.980;8.410;2023-08-31T11:27:19;3.38;;;1.63;;
32788;SDS011;19141;48.980;8.410;2023-08-31T11:29:45;2.65;;;1.60;;
32788;SDS011;19141;48.980;8.410;2023-08-31T11:32:11;4.85;;;1.88;;
32788;SDS011;19141;48.980;8.410;2023-08-31T11:34:43;5.95;;;2.10;;
32788;SDS011;19141;48.980;8.410;2023-08-31T11:37:13;2.45;;;1.40;;
32788;SDS011;19141;48.980;8.410;2023-08-31T11:39:50;3.00;;;1.50;;
32788;SDS011;19141;48.980;8.410;2023-08-31T11:42:17;2.90;;;1.70;;
32788;SDS011;19141;48.980;8.410;2023-08-31T11:44:45;6.35;;;2.00;;
32788;SDS011;19141;48.980;8.410;2023-08-31T11:47:13;3.25;;;1.60;;
32788;SDS011;19141;48.980;8.410;2023-08-31T11:49:40;3.35;;;1.60;;
32788;SDS011;19141;48.980;8.410;2023-08-31T11:52:09;5.43;;;1.52;;
32788;SDS011;19141;48.980;8.410;2023-08-31T11:54:42;2.67;;;1.35;;
32788;SDS011;19141;48.980;8.410;2023-08-31T11:57:09;3.30;;;1.60;;
32788;SDS011;19141;48.980;8.410;2023-08-31T11:59:35;2.88;;;1.52;;
32788;SDS011;19141;48.980;8.410;2023-08-31T12:02:02;2.67;;;1.45;;
32788;SDS011;19141;48.980;8.410;2023-08-31T12:04:31;2.75;;;1.40;;
32788;SDS011;19141;48.980;8.410;2023-08-31T12:07:03;3.55;;;1.55;;
32788;SDS011;19141;48.980;8.410;2023-08-31T12:09:31;4.40;;;2.10;;
32788;SDS011;19141;48.980;8.410;2023-08-31T12:11:57;2.97;;;1.73;;
32788;SDS011;19141;48.980;8.410;2023-08-31T12:14:23;4.68;;;2.85;;
32788;SDS011;19141;48.980;8.410;2023-08-31T12:16:51;5.45;;;1.90;;
32788;SDS011;19141;48.980;8.410;2023-08-31T12:19:17;3.95;;;1.33;;
32788;SDS011;19141;48.980;8.410;2023-08-31T12:21:44;3.97;;;1.50;;
32788;SDS011;19141;48.980;8.410;2023-08-31T12:24:11;3.88;;;1.88;;
32788;SDS011;19141;48.980;8.410;2023-08-31T12:26:37;4.20;;;1.60;;
32788;SDS011;19141;48.980;8.410;2023-08-31T12:29:02;3.90;;;2.08;;
32788;SDS011;19141;48.980;8.410;2023-08-31T12:31:32;5.13;;;1.60;;
32788;SDS011;19141;48.980;8.410;2023-08-31T12:33:58;4.50;;;2.47;;
32788;SDS011;19141;48.980;8.410;2023-08-31T12:36:27;3.13;;;1.52;;
32788;SDS011;19141;48.980;8.410;2023-08-31T12:38:53;2.80;;;1.48;;
32788;SDS011;19141;48.980;8.410;2023-08-31T12:41:19;3.95;;;1.70;;
32788;SDS011;19141;48.980;8.410;2023-08-31T12:43:45;4.30;;;1.63;;
32788;SDS011;19141;48.980;8.410;2023-08-31T12:46:10;2.58;;;1.30;;
32788;SDS011;19141;48.980;8.410;2023-08-31T12:48:38;3.30;;;1.50;;
32788;SDS011;19141;48.980;8.410;2023-08-31T12:51:04;2.75;;;1.65;;
32788;SDS011;19141;48.980;8.410;2023-08-31T12:53:29;2.38;;;1.58;;
32788;SDS011;19141;48.980;8.410;2023-08-31T12:55:55;2.58;;;1.50;;
32788;SDS011;19141;48.980;8.410;2023-08-31T12:58:20;4.50;;;1.65;;
32788;SDS011;19141;48.980;8.410;2023-08-31T13:00:47;3.00;;;1.30;;
32788;SDS011;19141;48.980;8.410;2023-08-31T13:03:14;4.00;;;1.70;;
32788;SDS011;19141;48.980;8.410;2023-08-31T13:05:40;3.42;;;1.45;;
32788;SDS011;19141;48.980;8.410;2023-08-31T13:08:06;2.55;;;1.50;;
32788;SDS011;19141;48.980;8.410;2023-08-31T13:10:34;2.45;;;1.33;;
32788;SDS011;19141;48.980;8.410;2023-08-31T13:12:59;3.20;;;1.60;;
32788;SDS011;19141;48.980;8.410;2023-08-31T13:15:25;3.22;;;1.60;;
32788;SDS011;19141;48.980;8.410;2023-08-31T13:17:51;3.75;;;1.48;;
32788;SDS011;19141;48.980;8.410;2023-08-31T13:20:16;3.75;;;1.70;;
32788;SDS011;19141;48.980;8.410;2023-08-31T13:22:41;2.33;;;1.35;;
32788;SDS011;19141;48.980;8.410;2023-08-31T13:25:07;2.58;;;1.60;;
32788;SDS011;19141;48.980;8.410;2023-08-31T13:27:32;3.65;;;1.50;;
32788;SDS011;19141;48.980;8.410;2023-08-31T13:29:58;6.35;;;1.98;;
32788;SDS011;19141;48.980;8.410;2023-08-31T13:32:24;3.50;;;1.50;;
32788;SDS011;19141;48.980;8.410;2023-08-31T13:34:49;5.15;;;1.50;;
32788;SDS011;19141;48.980;8.410;2023-08-31T13:37:15;2.05;;;1.38;;
32788;SDS011;19141;48.980;8.410;2023-08-31T13:39:40;4.97;;;1.85;;
32788;SDS011;19141;48.980;8.410;2023-08-31T13:42:06;4.05;;;1.60;;
32788;SDS011;19141;48.980;8.410;2023-08-31T13:44:31;4.47;;;1.65;;
32788;SDS011;19141;48.980;8.410;2023-08-31T13:46:57;2.50;;;1.38;;
32788;SDS011;19141;48.980;8.410;2023-08-31T13:49:22;3.03;;;1.50;;
32788;SDS011;19141;48.980;8.410;2023-08-31T13:51:48;4.35;;;1.50;;
32788;SDS011;19141;48.980;8.410;2023-08-31T13:54:13;5.68;;;2.00;;
32788;SDS011;19141;48.980;8.410;2023-08-31T13:56:39;4.18;;;1.40;;
32788;SDS011;19141;48.980;8.410;2023-08-31T13:59:04;2.35;;;1.65;;
32788;SDS011;19141;48.980;8.410;2023-08-31T14:01:30;2.97;;;1.38;;
32788;SDS011;19141;48.980;8.410;2023-08-31T14:03:55;5.85;;;1.70;;
32788;SDS011;19141;48.980;8.410;2023-08-31T14:06:21;3.83;;;1.75;;
32788;SDS011;19141;48.980;8.410;2023-08-31T14:08:46;3.28;;;1.50;;
32788;SDS011;19141;48.980;8.410;2023-08-31T14:11:12;3.80;;;1.40;;
32788;SDS011;19141;48.980;8.410;2023-08-31T14:13:38;6.07;;;2.00;;
32788;SDS011;19141;48.980;8.410;2023-08-31T14:16:04;4.60;;;1.70;;
32788;SDS011;19141;48.980;8.410;2023-08-31T14:18:29;5.13;;;1.73;;
32788;SDS011;19141;48.980;8.410;2023-08-31T14:20:57;4.50;;;1.73;;
32788;SDS011;19141;48.980;8.410;2023-08-31T14:23:24;3.58;;;1.90;;
32788;SDS011;19141;48.980;8.410;2023-08-31T14:25:49;4.65;;;1.70;;
32788;SDS011;19141;48.980;8.410;2023-08-31T14:28:15;4.68;;;1.55;;
32788;SDS011;19141;48.980;8.410;2023-08-31T14:30:40;3.65;;;1.80;;
32788;SDS011;19141;48.980;8.410;2023-08-31T14:33:05;3.88;;;1.48;;
32788;SDS011;19141;48.980;8.410;2023-08-31T14:35:31;2.92;;;1.30;;
32788;SDS011;19141;48.980;8.410;2023-08-31T14:37:56;3.70;;;2.05;;
32788;SDS011;19141;48.980;8.410;2023-08-31T14:40:23;6.47;;;1.48;;
32788;SDS011;19141;48.980;8.410;2023-08-31T14:42:49;4.10;;;1.90;;
32788;SDS011;19141;48.980;8.410;2023-08-31T14:45:14;4.57;;;1.60;;
32788;SDS011;19141;48.980;8.410;2023-08-31T14:47:39;3.30;;;1.63;;
32788;SDS011;19141;48.980;8.410;2023-08-31T14:50:05;4.28;;;1.83;;
32788;SDS011;19141;48.980;8.410;2023-08-31T14:52:31;3.33;;;1.83;;
32788;SDS011;19141;48.980;8.410;2023-08-31T14:54:56;5.18;;;1.85;;
32788;SDS011;19141;48.980;8.410;2023-08-31T14:57:22;4.85;;;1.60;;
32788;SDS011;19141;48.980;8.410;2023-08-31T14:59:47;4.20;;;1.60;;
32788;SDS011;19141;48.980;8.410;2023-08-31T15:02:13;4.78;;;1.90;;
32788;SDS011;19141;48.980;8.410;2023-08-31T15:04:39;4.32;;;1.60;;
32788;SDS011;19141;48.980;8.410;2023-08-31T15:07:05;3.33;;;1.70;;
32788;SDS011;19141;48.980;8.410;2023-08-31T15:09:30;4.47;;;1.98;;
32788;SDS011;19141;48.980;8.410;2023-08-31T15:11:56;2.97;;;1.50;;
32788;SDS011;19141;48.980;8.410;2023-08-31T15:14:21;5.97;;;2.55;;
32788;SDS011;19141;48.980;8.410;2023-08-31T15:16:47;3.83;;;1.77;;
32788;SDS011;19141;48.980;8.410;2023-08-31T15:19:12;3.63;;;1.67;;
32788;SDS011;19141;48.980;8.410;2023-08-31T15:21:38;3.45;;;1.85;;
32788;SDS011;19141;48.980;8.410;2023-08-31T15:24:03;4.20;;;1.98;;
32788;SDS011;19141;48.980;8.410;2023-08-31T15:26:29;4.90;;;2.20;;
32788;SDS011;19141;48.980;8.410;2023-08-31T15:28:54;5.70;;;2.05;;
32788;SDS011;19141;48.980;8.410;2023-08-31T15:31:19;3.78;;;1.98;;
32788;SDS011;19141;48.980;8.410;2023-08-31T15:33:45;3.58;;;1.73;;
32788;SDS011;19141;48.980;8.410;2023-08-31T15:36:10;3.38;;;1.67;;
32788;SDS011;19141;48.980;8.410;2023-08-31T15:38:36;4.70;;;1.60;;
32788;SDS011;19141;48.980;8.410;2023-08-31T15:41:04;3.13;;;1.75;;
32788;SDS011;19141;48.980;8.410;2023-08-31T15:43:31;5.47;;;1.80;;
32788;SDS011;19141;48.980;8.410;2023-08-31T15:46:01;2.90;;;1.77;;
32788;SDS011;19141;48.980;8.410;2023-08-31T15:48:27;5.00;;;1.80;;
32788;SDS011;19141;48.980;8.410;2023-08-31T15:50:57;4.68;;;2.03;;
32788;SDS011;19141;48.980;8.410;2023-08-31T15:53:23;3.20;;;1.55;;
32788;SDS011;19141;48.980;8.410;2023-08-31T15:55:49;4.72;;;1.63;;
32788;SDS011;19141;48.980;8.410;2023-08-31T15:58:15;8.68;;;1.92;;
32788;SDS011;19141;48.980;8.410;2023-08-31T16:00:41;2.63;;;1.50;;
32788;SDS011;19141;48.980;8.410;2023-08-31T16:03:07;3.45;;;1.65;;
32788;SDS011;19141;48.980;8.410;2023-08-31T16:05:34;2.63;;;1.58;;
32788;SDS011;19141;48.980;8.410;2023-08-31T16:07:59;3.40;;;1.70;;
32788;SDS011;19141;48.980;8.410;2023-08-31T16:10:26;3.95;;;1.70;;
32788;SDS011;19141;48.980;8.410;2023-08-31T16:12:51;4.93;;;2.15;;
32788;SDS011;19141;48.980;8.410;2023-08-31T16:15:18;2.95;;;1.70;;
32788;SDS011;19141;48.980;8.410;2023-08-31T16:17:43;5.97;;;1.85;;
32788;SDS011;19141;48.980;8.410;2023-08-31T16:20:09;4.68;;;1.50;;
32788;SDS011;19141;48.980;8.410;2023-08-31T16:22:36;5.65;;;1.90;;
32788;SDS011;19141;48.980;8.410;2023-08-31T16:25:04;5.90;;;1.70;;
32788;SDS011;19141;48.980;8.410;2023-08-31T16:27:30;3.50;;;1.88;;
32788;SDS011;19141;48.980;8.410;2023-08-31T16:29:56;3.67;;;1.77;;
32788;SDS011;19141;48.980;8.410;2023-08-31T16:32:22;2.90;;;1.75;;
32788;SDS011;19141;48.980;8.410;2023-08-31T16:34:51;3.53;;;1.75;;
32788;SDS011;19141;48.980;8.410;2023-08-31T16:37:20;4.47;;;1.70;;
32788;SDS011;19141;48.980;8.410;2023-08-31T16:39:46;4.05;;;1.77;;
32788;SDS011;19141;48.980;8.410;2023-08-31T16:42:12;2.50;;;1.70;;
32788;SDS011;19141;48.980;8.410;2023-08-31T16:44:38;2.50;;;1.43;;
32788;SDS011;19141;48.980;8.410;2023-08-31T16:47:04;6.97;;;1.90;;
32788;SDS011;19141;48.980;8.410;2023-08-31T16:49:30;4.65;;;1.80;;
32788;SDS011;19141;48.980;8.410;2023-08-31T16:51:56;3.45;;;1.58;;
32788;SDS011;19141;48.980;8.410;2023-08-31T16:54:21;3.47;;;1.70;;
32788;SDS011;19141;48.980;8.410;2023-08-31T16:56:47;4.50;;;2.00;;
32788;SDS011;19141;48.980;8.410;2023-08-31T16:59:13;3.53;;;1.70;;
32788;SDS011;19141;48.980;8.410;2023-08-31T17:01:39;7.60;;;2.25;;
32788;SDS011;19141;48.980;8.410;2023-08-31T17:04:04;3.33;;;1.92;;
32788;SDS011;19141;48.980;8.410;2023-08-31T17:06:30;4.65;;;2.08;;
32788;SDS011;19141;48.980;8.410;2023-08-31T17:08:56;4.30;;;2.00;;
32788;SDS011;19141;48.980;8.410;2023-08-31T17:11:22;5.97;;;2.10;;
32788;SDS011;19141;48.980;8.410;2023-08-31T17:13:48;4.75;;;1.95;;
32788;SDS011;19141;48.980;8.410;2023-08-31T17:16:13;3.95;;;1.95;;
32788;SDS011;19141;48.980;8.410;2023-08-31T17:18:39;3.78;;;2.10;;
32788;SDS011;19141;48.980;8.410;2023-08-31T17:21:05;3.00;;;1.63;;
32788;SDS011;19141;48.980;8.410;2023-08-31T17:23:31;2.95;;;1.73;;
32788;SDS011;19141;48.980;8.410;2023-08-31T17:25:56;4.72;;;2.05;;
32788;SDS011;19141;48.980;8.410;2023-08-31T17:28:21;3.85;;;1.85;;
32788;SDS011;19141;48.980;8.410;2023-08-31T17:30:47;6.50;;;2.25;;
32788;SDS011;19141;48.980;8.410;2023-08-31T17:33:12;4.63;;;2.40;;
32788;SDS011;19141;48.980;8.410;2023-08-31T17:35:38;3.58;;;1.73;;
32788;SDS011;19141;48.980;8.410;2023-08-31T17:38:03;4.82;;;2.13;;
32788;SDS011;19141;48.980;8.410;2023-08-31T17:40:29;4.05;;;2.55;;
32788;SDS011;19141;48.980;8.410;2023-08-31T17:42:54;4.38;;;1.73;;
32788;SDS011;19141;48.980;8.410;2023-08-31T17:45:19;3.10;;;1.92;;
32788;SDS011;19141;48.980;8.410;2023-08-31T17:47:45;3.00;;;1.90;;
32788;SDS011;19141;48.980;8.410;2023-08-31T17:50:10;3.90;;;1.83;;
32788;SDS011;19141;48.980;8.410;2023-08-31T17:52:36;2.92;;;1.77;;
32788;SDS011;19141;48.980;8.410;2023-08-31T17:55:02;5.32;;;1.67;;
32788;SDS011;19141;48.980;8.410;2023-08-31T17:57:28;4.53;;;1.83;;
32788;SDS011;19141;48.980;8.410;2023-08-31T17:59:54;3.47;;;2.10;;
32788;SDS011;19141;48.980;8.410;2023-08-31T18:02:20;4.43;;;2.03;;
32788;SDS011;19141;48.980;8.410;2023-08-31T18:04:46;4.35;;;2.00;;
32788;SDS011;19141;48.980;8.410;2023-08-31T18:07:11;3.70;;;1.58;;
32788;SDS011;19141;48.980;8.410;2023-08-31T18:09:37;4.85;;;2.30;;
32788;SDS011;19141;48.980;8.410;2023-08-31T18:12:05;4.53;;;2.53;;
32788;SDS011;19141;48.980;8.410;2023-08-31T18:14:32;5.78;;;2.20;;
32788;SDS011;19141;48.980;8.410;2023-08-31T18:16:59;3.78;;;2.05;;
32788;SDS011;19141;48.980;8.410;2023-08-31T18:19:25;4.50;;;2.10;;
32788;SDS011;19141;48.980;8.410;2023-08-31T18:21:52;4.68;;;2.10;;
32788;SDS011;19141;48.980;8.410;2023-08-31T18:24:18;2.78;;;1.85;;
32788;SDS011;19141;48.980;8.410;2023-08-31T18:26:44;6.32;;;2.58;;
32788;SDS011;19141;48.980;8.410;2023-08-31T18:29:09;4.53;;;2.33;;
32788;SDS011;19141;48.980;8.410;2023-08-31T18:31:34;4.70;;;2.17;;
32788;SDS011;19141;48.980;8.410;2023-08-31T18:34:05;2.88;;;2.05;;
32788;SDS011;19141;48.980;8.410;2023-08-31T18:36:31;3.60;;;2.33;;
32788;SDS011;19141;48.980;8.410;2023-08-31T18:38:57;4.65;;;2.40;;
32788;SDS011;19141;48.980;8.410;2023-08-31T18:41:22;3.22;;;2.00;;
32788;SDS011;19141;48.980;8.410;2023-08-31T18:43:48;3.65;;;2.28;;
32788;SDS011;19141;48.980;8.410;2023-08-31T18:46:14;5.22;;;2.08;;
32788;SDS011;19141;48.980;8.410;2023-08-31T18:48:39;4.45;;;2.05;;
32788;SDS011;19141;48.980;8.410;2023-08-31T18:51:05;6.22;;;2.25;;
32788;SDS011;19141;48.980;8.410;2023-08-31T18:53:30;3.60;;;2.25;;
32788;SDS011;19141;48.980;8.410;2023-08-31T18:55:56;3.97;;;2.00;;
32788;SDS011;19141;48.980;8.410;2023-08-31T18:58:23;7.18;;;2.35;;
32788;SDS011;19141;48.980;8.410;2023-08-31T19:00:53;4.95;;;2.20;;
32788;SDS011;19141;48.980;8.410;2023-08-31T19:03:18;10.98;;;3.28;;
32788;SDS011;19141;48.980;8.410;2023-08-31T19:05:43;5.03;;;2.10;;
32788;SDS011;19141;48.980;8.410;2023-08-31T19:08:09;5.68;;;1.92;;
32788;SDS011;19141;48.980;8.410;2023-08-31T19:10:35;5.57;;;2.47;;
32788;SDS011;19141;48.980;8.410;2023-08-31T19:13:00;5.00;;;2.17;;
32788;SDS011;19141;48.980;8.410;2023-08-31T19:15:33;4.35;;;2.00;;